Time;durP1;ratioP1;P1;durP2;ratioP2;P2;SDS_P1;SDS_P2;PMS_P1;PMS_P2;Temp;Humidity;BMP_temperature;BMP_pressure;BME280_temperature;BME280_humidity;BME280_pressure;Samples;Min_cycle;Max_cycle;Signal;HPM_P1;HPM_P2
2022/04/23 00:00:05;;;;;;;24.50;15.80;;;;;;;5.49;81.92;95996.03;5049300;28;20095;-65
2022/04/23 00:02:39;;;;;;;23.05;14.77;;;;;;;5.48;82.01;95997.09;5056511;28;20063;-65
2022/04/23 00:05:06;;;;;;;22.35;15.25;;;;;;;5.47;82.28;95996.31;5065530;28;20049;-65
2022/04/23 00:07:33;;;;;;;23.80;16.08;;;;;;;5.57;81.66;95998.25;5053091;28;20057;-65
2022/04/23 00:10:00;;;;;;;24.83;15.25;;;;;;;5.54;82.44;95992.59;5049571;28;20048;-65
2022/04/23 00:12:26;;;;;;;21.63;14.82;;;;;;;5.51;81.30;95988.53;5048364;28;20071;-65
2022/04/23 00:14:53;;;;;;;21.90;14.18;;;;;;;5.42;82.31;95990.06;5049675;28;20041;-65
2022/04/23 00:17:20;;;;;;;24.33;15.60;;;;;;;5.24;82.50;95997.41;5065121;28;20075;-65
2022/04/23 00:19:46;;;;;;;21.42;16.20;;;;;;;5.26;83.64;95994.44;5067547;28;20056;-65
2022/04/23 00:22:15;;;;;;;25.20;15.50;;;;;;;5.31;82.38;95992.63;5067567;28;20040;-65
2022/04/23 00:24:42;;;;;;;24.58;15.77;;;;;;;5.29;82.35;95994.78;5054603;28;20056;-65
2022/04/23 00:27:09;;;;;;;24.27;16.77;;;;;;;5.05;83.29;95995.03;5046102;28;20052;-65
2022/04/23 00:29:36;;;;;;;23.98;16.27;;;;;;;5.06;84.33;96006.59;5065828;28;20600;-65
2022/04/23 00:32:03;;;;;;;21.73;15.18;;;;;;;5.04;83.15;96004.16;5068116;28;20052;-65
2022/04/23 00:34:30;;;;;;;21.52;15.00;;;;;;;5.00;84.31;96007.56;5056284;28;20131;-65
2022/04/23 00:36:56;;;;;;;23.33;15.32;;;;;;;4.97;83.45;96013.47;5057278;28;20076;-65
2022/04/23 00:39:23;;;;;;;24.75;16.13;;;;;;;4.87;84.83;96008.75;5063685;28;20445;-65
2022/04/23 00:41:52;;;;;;;25.15;16.80;;;;;;;5.09;84.68;96014.16;5045617;28;20049;-65
2022/04/23 00:44:19;;;;;;;23.48;16.10;;;;;;;4.98;84.23;96010.53;5048654;28;20504;-65
2022/04/23 00:46:45;;;;;;;27.35;16.17;;;;;;;4.91;84.98;96013.38;5056408;28;20093;-66
2022/04/23 00:49:13;;;;;;;22.15;15.85;;;;;;;5.01;84.57;96012.69;5067972;28;20044;-65
2022/04/23 00:51:41;;;;;;;25.98;17.70;;;;;;;4.93;85.95;96005.06;5085813;28;20044;-65
2022/04/23 00:54:10;;;;;;;23.55;16.88;;;;;;;4.82;84.28;96001.47;5066258;28;20052;-65
2022/04/23 00:56:39;;;;;;;24.25;16.45;;;;;;;4.85;84.85;95998.28;5051312;28;20040;-66
2022/04/23 00:59:08;;;;;;;23.17;15.77;;;;;;;4.64;84.45;95995.34;5067010;28;20048;-65
2022/04/23 01:01:35;;;;;;;23.27;16.00;;;;;;;4.69;84.50;96005.31;5062255;28;20577;-65
2022/04/23 01:04:02;;;;;;;21.38;15.02;;;;;;;4.63;84.68;95995.56;5053803;28;20114;-65
2022/04/23 01:06:33;;;;;;;27.30;17.23;;;;;;;4.63;85.10;96000.94;5039264;28;20440;-65
2022/04/23 01:09:02;;;;;;;22.27;15.95;;;;;;;4.52;84.91;95994.63;5060924;28;20045;-65
2022/04/23 01:11:29;;;;;;;24.17;15.07;;;;;;;4.42;85.12;96001.47;5062598;28;20049;-65
2022/04/23 01:13:56;;;;;;;27.50;16.05;;;;;;;4.40;86.22;95992.06;5065358;28;20046;-65
2022/04/23 01:16:23;;;;;;;27.85;18.55;;;;;;;4.39;86.38;95987.75;5058788;28;20049;-65
2022/04/23 01:18:49;;;;;;;24.77;16.88;;;;;;;4.30;87.26;95990.03;5068077;28;20040;-65
2022/04/23 01:21:16;;;;;;;31.42;18.75;;;;;;;4.40;87.04;95984.03;5065979;28;20094;-65
2022/04/23 01:23:46;;;;;;;28.10;17.77;;;;;;;4.16;87.66;95986.88;5061806;28;20907;-65
2022/04/23 01:26:22;;;;;;;25.60;16.50;;;;;;;4.18;87.56;95986.63;5066780;28;20041;-65
2022/04/23 01:28:49;;;;;;;25.98;17.58;;;;;;;4.42;88.17;95984.56;5047605;28;20052;-66
2022/04/23 01:31:15;;;;;;;25.90;18.17;;;;;;;4.52;86.34;95983.91;5051112;28;20049;-65
2022/04/23 01:33:42;;;;;;;22.98;15.15;;;;;;;4.07;84.66;95983.00;5066434;28;20041;-65
2022/04/23 01:36:09;;;;;;;27.65;18.55;;;;;;;4.02;87.60;95979.19;5050433;28;20485;-65
2022/04/23 01:38:35;;;;;;;26.80;17.90;;;;;;;4.06;87.68;95974.16;5067113;28;20048;-65
2022/04/23 01:41:02;;;;;;;27.27;18.80;;;;;;;4.18;86.84;95979.44;5053914;28;20049;-65
2022/04/23 01:43:28;;;;;;;25.60;17.25;;;;;;;4.03;86.81;95980.00;5045583;28;20045;-65
2022/04/23 01:45:55;;;;;;;24.42;17.15;;;;;;;4.07;87.14;95978.47;5053937;28;20033;-65
2022/04/23 01:48:21;;;;;;;26.20;17.33;;;;;;;4.18;87.80;95982.09;5050726;28;20049;-65
2022/04/23 01:50:48;;;;;;;24.95;17.00;;;;;;;4.20;86.12;95976.50;5066752;28;20041;-65
2022/04/23 01:53:14;;;;;;;29.00;17.25;;;;;;;4.11;85.49;95978.78;5047478;28;20103;-66
2022/04/23 01:55:41;;;;;;;25.65;16.33;;;;;;;3.81;86.22;95987.94;5061239;28;20591;-65
2022/04/23 01:58:07;;;;;;;27.60;17.08;;;;;;;3.72;87.93;95998.25;5061101;28;20424;-65
2022/04/23 02:00:34;;;;;;;25.50;16.92;;;;;;;3.68;87.90;95997.91;5045933;28;20048;-65
2022/04/23 02:03:01;;;;;;;28.17;19.02;;;;;;;3.81;87.21;95998.66;5061603;28;20040;-65
2022/04/23 02:05:28;;;;;;;23.27;15.73;;;;;;;3.71;87.20;95997.44;5062148;28;20119;-65
2022/04/23 02:07:54;;;;;;;24.98;17.27;;;;;;;3.62;88.24;95993.53;5047353;28;20044;-65
2022/04/23 02:10:21;;;;;;;26.38;16.83;;;;;;;3.93;86.29;95987.88;5062192;28;20047;-65
2022/04/23 02:12:47;;;;;;;34.28;16.75;;;;;;;3.74;86.05;95988.94;5046630;28;20041;-65
2022/04/23 02:15:16;;;;;;;26.63;16.98;;;;;;;3.64;87.38;95986.06;5047647;28;20067;-65
2022/04/23 02:17:47;;;;;;;26.35;16.65;;;;;;;3.67;86.85;95990.94;5050723;28;20044;-65
2022/04/23 02:20:18;;;;;;;25.48;16.75;;;;;;;3.61;87.89;95986.56;5065975;28;20044;-65
2022/04/23 02:22:45;;;;;;;28.35;17.02;;;;;;;3.44;87.24;95986.53;5046673;28;20053;-65
2022/04/23 02:25:12;;;;;;;28.90;17.90;;;;;;;3.35;88.85;95983.41;5046532;28;20412;-65
2022/04/23 02:27:42;;;;;;;29.50;18.63;;;;;;;3.42;88.33;95984.09;5044246;28;20500;-65
2022/04/23 02:30:10;;;;;;;26.60;17.17;;;;;;;3.28;87.81;95982.78;5046897;28;20052;-65
2022/04/23 02:32:36;;;;;;;27.55;17.83;;;;;;;3.40;88.79;95985.38;5055625;28;20452;-65
2022/04/23 02:35:04;;;;;;;32.35;18.92;;;;;;;3.47;89.18;95981.50;5057695;28;20450;-65
2022/04/23 02:37:34;;;;;;;29.88;17.80;;;;;;;3.36;88.65;95991.22;5045852;28;20508;-65
2022/04/23 02:40:02;;;;;;;28.08;17.95;;;;;;;3.46;87.39;95990.59;5060871;28;20053;-65
2022/04/23 02:42:29;;;;;;;25.27;16.60;;;;;;;3.32;87.91;95986.59;5045362;28;20056;-66
2022/04/23 02:45:01;;;;;;;27.42;18.58;;;;;;;3.31;89.09;95988.44;5046919;28;20548;-65
2022/04/23 02:47:29;;;;;;;29.15;18.05;;;;;;;3.36;88.63;95991.22;5054481;28;20047;-65
2022/04/23 02:49:56;;;;;;;24.88;16.45;;;;;;;3.25;88.01;95990.22;5059257;28;20045;-65
2022/04/23 02:52:22;;;;;;;28.98;18.52;;;;;;;3.23;88.29;95992.31;5046070;28;20167;-65
2022/04/23 02:54:50;;;;;;;30.15;20.23;;;;;;;3.22;90.01;95992.56;5046481;28;20037;-65
2022/04/23 02:57:17;;;;;;;31.45;19.73;;;;;;;3.39;89.10;95989.91;5045130;28;20493;-65
2022/04/23 02:59:43;;;;;;;30.90;18.10;;;;;;;3.24;88.82;95987.75;5059272;28;20048;-65
2022/04/23 03:02:10;;;;;;;27.95;18.17;;;;;;;3.24;89.31;95990.44;5053145;28;20045;-65
2022/04/23 03:04:36;;;;;;;28.02;17.75;;;;;;;3.11;89.81;95988.88;5059894;28;20054;-65
2022/04/23 03:07:03;;;;;;;29.23;17.08;;;;;;;3.10;89.30;95993.41;5056350;28;20037;-66
2022/04/23 03:09:30;;;;;;;28.73;18.55;;;;;;;3.14;89.98;95990.25;5057713;28;20044;-65
2022/04/23 03:11:57;;;;;;;29.60;17.92;;;;;;;3.10;91.05;96004.09;5050993;28;20053;-65
2022/04/23 03:14:23;;;;;;;29.60;18.55;;;;;;;3.28;90.14;95993.47;5058329;28;20049;-65
2022/04/23 03:16:50;;;;;;;31.40;19.85;;;;;;;3.41;90.41;96001.19;5065633;28;20044;-66
2022/04/23 03:19:16;;;;;;;28.15;16.55;;;;;;;3.40;88.32;95991.56;5063355;28;20044;-65
2022/04/23 03:21:43;;;;;;;25.17;16.27;;;;;;;3.35;89.27;95996.78;5064054;28;20049;-65
2022/04/23 03:24:09;;;;;;;27.30;16.50;;;;;;;3.21;87.93;95989.06;5058344;28;20044;-65
2022/04/23 03:26:36;;;;;;;26.67;17.15;;;;;;;2.92;90.22;95989.06;5063184;28;20086;-65
2022/04/23 03:29:04;;;;;;;27.20;17.95;;;;;;;2.84;90.57;95990.22;5054167;28;20052;-65
2022/04/23 03:31:31;;;;;;;26.95;16.02;;;;;;;2.90;91.17;95987.66;5047747;28;20108;-65
2022/04/23 03:33:58;;;;;;;27.92;18.27;;;;;;;2.93;91.26;95992.53;5049283;28;20570;-65
2022/04/23 03:36:24;;;;;;;27.83;18.40;;;;;;;3.08;91.42;95984.00;5046578;28;20483;-65
2022/04/23 03:38:51;;;;;;;27.58;18.00;;;;;;;2.98;90.30;95985.44;5045868;28;20040;-66
2022/04/23 03:41:17;;;;;;;27.67;18.85;;;;;;;2.96;91.73;95986.72;5043041;28;20059;-65
2022/04/23 03:43:44;;;;;;;29.17;19.05;;;;;;;3.01;91.62;95977.97;5050838;28;20063;-65
2022/04/23 03:46:12;;;;;;;31.45;19.80;;;;;;;2.92;91.68;95983.72;5045513;28;20040;-65
2022/04/23 03:48:38;;;;;;;26.75;17.17;;;;;;;2.82;90.39;95983.50;5057572;28;20534;-65
2022/04/23 03:51:05;;;;;;;28.60;18.50;;;;;;;2.88;92.01;95987.91;5048087;28;20036;-66
2022/04/23 03:53:31;;;;;;;30.10;18.50;;;;;;;2.90;91.14;95984.97;5055704;28;20052;-65
2022/04/23 03:55:58;;;;;;;26.75;17.13;;;;;;;2.81;90.53;95985.38;5045383;28;20036;-65
2022/04/23 03:58:26;;;;;;;32.25;20.02;;;;;;;2.72;90.15;95992.13;5061546;28;20115;-65
2022/04/23 04:00:53;;;;;;;32.63;20.13;;;;;;;2.77;91.65;95992.25;5052891;28;20505;-65
2022/04/23 04:03:19;;;;;;;27.35;19.08;;;;;;;2.70;90.29;95988.88;5052135;28;20599;-65
2022/04/23 04:05:48;;;;;;;29.90;17.73;;;;;;;2.65;90.76;95978.88;5047333;28;20037;-65
2022/04/23 04:08:14;;;;;;;27.55;17.98;;;;;;;2.80;91.42;95980.25;5045045;28;20055;-65
2022/04/23 04:10:41;;;;;;;27.95;16.70;;;;;;;2.76;89.55;95976.44;5043999;28;20114;-65
2022/04/23 04:13:07;;;;;;;23.85;15.82;;;;;;;2.55;89.79;95979.47;5047065;28;20473;-65
2022/04/23 04:15:34;;;;;;;26.88;17.20;;;;;;;2.57;90.80;95984.59;5062154;28;20432;-66
2022/04/23 04:18:01;;;;;;;26.13;18.17;;;;;;;2.63;91.16;95983.66;5060897;28;20044;-66
2022/04/23 04:20:29;;;;;;;26.15;16.40;;;;;;;2.53;90.84;95997.63;5061520;28;20074;-66
2022/04/23 04:22:56;;;;;;;30.50;18.17;;;;;;;2.66;91.95;95985.88;5062301;28;20919;-65
2022/04/23 04:25:23;;;;;;;28.98;17.83;;;;;;;2.80;92.32;95981.06;5047949;28;20573;-66
2022/04/23 04:27:50;;;;;;;23.42;14.85;;;;;;;2.57;89.76;95985.41;5053524;28;20060;-66
2022/04/23 04:30:16;;;;;;;25.25;16.02;;;;;;;2.32;91.13;95989.16;5053287;28;20072;-65
2022/04/23 04:32:49;;;;;;;26.85;15.95;;;;;;;2.52;93.21;95982.63;5053932;28;20044;-66
2022/04/23 04:35:16;;;;;;;32.10;17.27;;;;;;;2.74;92.87;95982.00;5045271;28;20041;-66
2022/04/23 04:37:44;;;;;;;28.73;17.02;;;;;;;2.76;91.01;95987.91;5043286;28;20036;-65
2022/04/23 04:40:11;;;;;;;25.63;15.63;;;;;;;2.76;91.31;95992.47;5045092;28;20041;-65
2022/04/23 04:42:37;;;;;;;27.45;16.70;;;;;;;2.93;92.16;96001.38;5044138;28;20044;-65
2022/04/23 04:45:04;;;;;;;26.33;17.05;;;;;;;3.07;92.21;95996.56;5055599;28;20059;-66
2022/04/23 04:47:31;;;;;;;26.98;16.33;;;;;;;3.33;91.55;95996.25;5047844;28;20094;-65
2022/04/23 04:49:57;;;;;;;26.80;16.13;;;;;;;3.88;91.69;95984.06;5060111;28;20649;-65
2022/04/23 04:52:24;;;;;;;27.95;15.98;;;;;;;4.27;90.44;95988.66;5064689;28;20778;-65
2022/04/23 04:54:55;;;;;;;26.02;16.13;;;;;;;4.65;90.04;95996.94;5061692;28;20051;-65
2022/04/23 04:57:22;;;;;;;21.60;14.65;;;;;;;4.85;88.82;95997.47;5047999;28;20045;-65
2022/04/23 04:59:49;;;;;;;25.15;15.10;;;;;;;5.01;88.71;95993.91;5059946;28;20389;-65
2022/04/23 05:02:15;;;;;;;21.13;14.18;;;;;;;5.18;88.72;95996.53;5065719;28;20048;-65
2022/04/23 05:04:42;;;;;;;21.45;14.35;;;;;;;5.36;88.52;96001.81;5067836;28;20123;-65
2022/04/23 05:07:08;;;;;;;21.88;14.48;;;;;;;5.54;88.69;96000.66;5050307;28;20131;-66
2022/04/23 05:09:35;;;;;;;19.17;13.07;;;;;;;5.76;88.14;96000.59;5063493;28;20127;-66
2022/04/23 05:12:02;;;;;;;20.38;13.23;;;;;;;5.92;87.80;95996.16;5053545;28;20052;-65
2022/04/23 05:14:28;;;;;;;19.95;12.90;;;;;;;5.99;87.73;95999.47;5048732;28;20041;-65
2022/04/23 05:16:55;;;;;;;18.92;12.55;;;;;;;6.14;87.43;96000.66;5054140;28;20377;-65
2022/04/23 05:19:21;;;;;;;19.08;12.18;;;;;;;6.21;87.57;95997.75;5066876;28;20048;-66
2022/04/23 05:21:48;;;;;;;18.33;12.93;;;;;;;6.23;87.63;96006.38;5061804;28;20500;-65
2022/04/23 05:24:14;;;;;;;21.10;13.15;;;;;;;6.23;87.78;96007.19;5048408;28;20154;-65
2022/04/23 05:26:41;;;;;;;17.05;11.75;;;;;;;6.27;87.52;96010.19;5049763;28;20041;-65
2022/04/23 05:29:07;;;;;;;17.88;12.07;;;;;;;6.38;87.65;96008.38;5051721;28;20491;-65
2022/04/23 05:31:34;;;;;;;17.58;12.15;;;;;;;6.53;86.93;96014.91;5052248;28;20048;-65
2022/04/23 05:34:00;;;;;;;19.33;12.07;;;;;;;6.51;87.01;96012.47;5048788;28;20041;-66
2022/04/23 05:36:27;;;;;;;19.00;12.90;;;;;;;6.51;87.28;96015.16;5047691;28;20072;-65
2022/04/23 05:38:54;;;;;;;16.52;11.38;;;;;;;6.69;86.24;96015.81;5053233;28;20048;-65
2022/04/23 05:41:22;;;;;;;16.25;11.20;;;;;;;6.86;85.52;96021.81;5050042;28;20055;-65
2022/04/23 05:43:49;;;;;;;15.32;10.45;;;;;;;6.87;85.47;96023.44;5045670;28;20052;-65
2022/04/23 05:46:17;;;;;;;19.50;11.70;;;;;;;6.98;84.95;96029.69;5060505;28;20449;-65
2022/04/23 05:48:44;;;;;;;15.45;11.35;;;;;;;7.04;84.71;96033.19;5058776;28;20514;-63
2022/04/23 05:51:10;;;;;;;15.82;11.27;;;;;;;7.00;84.89;96030.22;5066652;28;20036;-63
2022/04/23 05:53:37;;;;;;;14.77;10.18;;;;;;;7.19;84.28;96037.03;5043597;28;20048;-65
2022/04/23 05:56:03;;;;;;;15.68;10.43;;;;;;;7.30;83.74;96033.31;5051755;28;20888;-65
2022/04/23 05:58:32;;;;;;;17.33;11.38;;;;;;;7.33;83.35;96040.06;5051513;28;20131;-65
2022/04/23 06:00:59;;;;;;;16.52;10.60;;;;;;;7.45;82.92;96046.03;5062076;28;20051;-65
2022/04/23 06:03:26;;;;;;;16.40;10.40;;;;;;;7.44;83.21;96040.91;5055461;28;20053;-65
2022/04/23 06:05:52;;;;;;;17.63;11.68;;;;;;;7.34;83.78;96047.84;5061173;28;20044;-65
2022/04/23 06:08:20;;;;;;;15.75;11.55;;;;;;;7.42;82.81;96038.47;5054403;28;20041;-65
2022/04/23 06:10:46;;;;;;;15.65;10.60;;;;;;;7.58;82.80;96043.88;5054175;28;20048;-65
2022/04/23 06:13:13;;;;;;;14.50;10.43;;;;;;;7.52;82.59;96043.88;5046420;28;20548;-65
2022/04/23 06:15:39;;;;;;;15.43;11.15;;;;;;;7.57;82.83;96047.66;5049840;28;20056;-65
2022/04/23 06:18:06;;;;;;;17.05;10.77;;;;;;;7.64;81.85;96043.66;5058243;28;20628;-65
2022/04/23 06:20:33;;;;;;;15.88;10.07;;;;;;;7.55;82.52;96047.91;5053250;28;20106;-65
2022/04/23 06:22:59;;;;;;;14.48;10.35;;;;;;;7.62;82.25;96055.75;5065367;28;20048;-65
2022/04/23 06:25:25;;;;;;;17.05;11.77;;;;;;;7.64;82.20;96051.75;5047435;28;20684;-65
2022/04/23 06:27:52;;;;;;;16.33;10.38;;;;;;;7.88;81.54;96058.50;5046059;28;20041;-65
2022/04/23 06:30:19;;;;;;;15.85;10.27;;;;;;;7.95;80.48;96053.66;5058816;28;20049;-65
2022/04/23 06:32:45;;;;;;;15.02;11.18;;;;;;;7.87;81.14;96049.63;5057601;28;20277;-65
2022/04/23 06:35:12;;;;;;;18.90;12.73;;;;;;;7.98;81.17;96057.72;5063745;28;20752;-65
2022/04/23 06:37:40;;;;;;;17.90;12.52;;;;;;;7.91;80.63;96058.78;5046683;28;20049;-65
2022/04/23 06:40:14;;;;;;;18.92;12.82;;;;;;;7.84;80.86;96058.22;5058860;28;20059;-65
2022/04/23 06:42:42;;;;;;;15.95;11.05;;;;;;;7.94;80.46;96058.28;5045460;28;20520;-65
2022/04/23 06:45:10;;;;;;;14.57;10.02;;;;;;;8.23;79.61;96061.50;5055826;28;20109;-65
2022/04/23 06:47:37;;;;;;;14.65;10.20;;;;;;;8.12;79.57;96058.81;5057737;28;20041;-65
2022/04/23 06:50:06;;;;;;;14.82;9.98;;;;;;;8.18;79.58;96063.13;5077097;28;20036;-65
2022/04/23 06:52:32;;;;;;;14.60;10.15;;;;;;;8.40;78.78;96055.88;5065604;28;20945;-65
2022/04/23 06:54:59;;;;;;;13.10;9.25;;;;;;;8.63;77.86;96053.72;5056063;28;20520;-65
2022/04/23 06:57:26;;;;;;;11.75;8.45;;;;;;;8.65;77.46;96052.34;5054095;28;20098;-65
2022/04/23 06:59:53;;;;;;;15.23;10.43;;;;;;;8.57;77.68;96050.19;5065230;28;20052;-65
2022/04/23 07:02:19;;;;;;;12.45;9.38;;;;;;;8.77;76.69;96056.66;5056802;28;20048;-65
2022/04/23 07:04:46;;;;;;;13.15;9.10;;;;;;;8.93;75.81;96052.84;5047792;28;20041;-65
2022/04/23 07:07:13;;;;;;;12.55;8.48;;;;;;;8.83;76.55;96061.78;5044405;28;20045;-65
2022/04/23 07:09:40;;;;;;;14.60;10.13;;;;;;;8.98;75.69;96060.94;5046460;28;20052;-65
2022/04/23 07:12:07;;;;;;;12.98;8.88;;;;;;;9.05;75.94;96060.66;5049324;28;20409;-65
2022/04/23 07:14:33;;;;;;;10.50;7.75;;;;;;;9.18;74.66;96067.34;5063198;28;20131;-66
2022/04/23 07:17:05;;;;;;;13.07;8.85;;;;;;;9.29;74.76;96073.50;5061475;28;20105;-65
2022/04/23 07:19:33;;;;;;;10.60;8.07;;;;;;;9.21;74.06;96072.19;5064501;28;20544;-65
2022/04/23 07:22:00;;;;;;;10.60;7.55;;;;;;;9.33;73.49;96074.59;5044720;28;20110;-65
2022/04/23 07:24:26;;;;;;;10.73;7.85;;;;;;;9.27;73.67;96072.16;5045586;28;20053;-65
2022/04/23 07:26:53;;;;;;;12.05;8.27;;;;;;;9.26;73.81;96076.78;5057966;28;20059;-65
2022/04/23 07:29:20;;;;;;;13.27;8.25;;;;;;;9.33;74.11;96071.09;5044834;28;20521;-65
2022/04/23 07:31:46;;;;;;;12.05;8.38;;;;;;;9.48;72.81;96068.31;5047267;28;20044;-65
2022/04/23 07:39:44;;;;;;;10.45;7.30;;;;;;;9.78;71.44;96067.63;5049249;28;20427;-65
2022/04/23 07:42:11;;;;;;;13.65;8.98;;;;;;;10.20;70.40;96074.41;5065539;28;20593;-65
2022/04/23 07:44:37;;;;;;;13.05;8.48;;;;;;;10.45;69.14;96071.81;5048371;28;20458;-65
2022/04/23 07:47:05;;;;;;;10.43;7.05;;;;;;;10.51;68.43;96073.38;5045506;28;20041;-65
2022/04/23 07:49:31;;;;;;;8.90;6.05;;;;;;;10.49;68.32;96070.97;5048684;28;20041;-65
2022/04/23 07:51:58;;;;;;;11.20;6.78;;;;;;;10.80;67.33;96078.81;5058559;28;20665;-65
2022/04/23 07:54:24;;;;;;;9.50;7.18;;;;;;;10.67;68.01;96071.34;5060714;28;20048;-65
2022/04/23 07:56:51;;;;;;;11.02;6.47;;;;;;;11.01;66.25;96058.81;5042893;28;20098;-65
2022/04/23 07:59:18;;;;;;;9.90;6.68;;;;;;;10.84;67.26;96064.69;5047112;28;20082;-65
2022/04/23 08:01:44;;;;;;;9.85;6.85;;;;;;;10.49;68.05;96064.72;5053600;28;20036;-65
2022/04/23 08:04:11;;;;;;;8.98;6.88;;;;;;;10.60;67.85;96071.69;5061673;28;20040;-65
2022/04/23 08:06:38;;;;;;;9.25;6.80;;;;;;;11.01;66.38;96056.13;5047726;28;20049;-65
2022/04/23 08:09:05;;;;;;;9.57;6.50;;;;;;;10.86;66.40;96062.50;5044570;28;20048;-65
2022/04/23 08:11:31;;;;;;;9.40;7.05;;;;;;;10.37;67.73;96059.66;5054183;28;20049;-65
2022/04/23 08:13:58;;;;;;;10.65;7.88;;;;;;;10.11;69.13;96062.56;5043914;28;20049;-65
2022/04/23 08:16:27;;;;;;;9.48;6.47;;;;;;;10.51;68.05;96059.84;5044247;28;20057;-65
2022/04/23 08:18:54;;;;;;;10.15;6.32;;;;;;;10.53;67.31;96061.19;5059879;28;20037;-65
2022/04/23 08:21:22;;;;;;;10.90;6.88;;;;;;;10.51;67.61;96066.06;5048102;28;20049;-65
2022/04/23 08:23:48;;;;;;;9.50;6.35;;;;;;;10.90;67.06;96061.66;5045767;28;20438;-65
2022/04/23 08:26:15;;;;;;;10.43;6.55;;;;;;;11.07;65.72;96055.00;5046646;28;20107;-65
2022/04/23 08:31:27;;;;;;;8.95;6.05;;;;;;;10.95;66.12;96062.69;5060147;28;20716;-65
2022/04/23 08:33:59;;;;;;;8.35;5.55;;;;;;;11.24;64.92;96068.06;5054634;28;20127;-65
2022/04/23 08:36:31;;;;;;;8.40;5.53;;;;;;;11.53;63.67;96069.88;5045975;28;20110;-65
2022/04/23 08:38:58;;;;;;;9.52;6.03;;;;;;;11.05;65.58;96068.81;5061731;28;20067;-65
2022/04/23 08:41:29;;;;;;;8.23;5.80;;;;;;;11.22;65.18;96066.75;5057125;28;20044;-65
2022/04/23 08:44:05;;;;;;;8.45;5.40;;;;;;;11.18;64.98;96066.50;5051926;28;20219;-65
2022/04/23 08:46:37;;;;;;;9.48;5.38;;;;;;;11.27;64.71;96063.97;5061070;28;20045;-64
2022/04/23 08:49:23;;;;;;;;;;;;;;;11.18;65.12;96055.69;5058254;28;20032;-65
2022/04/23 08:51:58;;;;;;;7.82;5.20;;;;;;;11.47;64.28;96062.94;5060150;28;19929;-65
2022/04/23 08:54:25;;;;;;;9.02;5.55;;;;;;;11.81;62.32;96064.66;5066144;28;20041;-65
2022/04/23 08:56:52;;;;;;;8.35;5.30;;;;;;;11.41;63.32;96059.47;5067052;28;20112;-65
2022/04/23 08:59:20;;;;;;;8.25;4.90;;;;;;;11.31;63.58;96054.97;5048165;28;20041;-65
2022/04/23 09:01:52;;;;;;;7.65;5.45;;;;;;;11.28;63.93;96060.19;5067170;28;20044;-65
2022/04/23 09:04:19;;;;;;;7.80;5.68;;;;;;;11.34;64.11;96056.31;5059272;28;20041;-65
2022/04/23 09:06:48;;;;;;;8.57;5.60;;;;;;;11.81;62.78;96042.97;5047603;28;20036;-65
2022/04/23 09:09:16;;;;;;;7.15;4.57;;;;;;;12.12;61.76;96049.09;5059421;28;20049;-65
2022/04/23 09:11:45;;;;;;;7.82;5.38;;;;;;;11.80;62.28;96052.19;5061125;28;20045;-64
2022/04/23 09:14:40;;;;;;;7.97;5.43;;;;;;;11.86;62.20;96065.69;5066266;28;20135;-65
2022/04/23 09:25:35;;;;;;;7.00;4.82;;;;;;;11.90;61.98;96050.44;5065021;28;20086;-65
2022/04/23 09:28:22;;;;;;;9.07;5.05;;;;;;;11.97;61.56;96048.16;5048516;28;20041;-64
2022/04/23 09:30:51;;;;;;;7.68;4.50;;;;;;;12.14;60.99;96060.44;5057278;28;20055;-64
2022/04/23 09:33:18;;;;;;;10.70;5.00;;;;;;;12.00;61.55;96058.44;5057237;28;20040;-64
2022/04/23 09:36:01;;;;;;;7.57;4.97;;;;;;;12.17;60.45;96059.84;5047164;28;20053;-64
2022/04/23 09:38:29;;;;;;;8.73;5.05;;;;;;;12.12;60.92;96049.88;5046619;28;20102;-64
2022/04/23 09:40:58;;;;;;;8.77;5.57;;;;;;;11.50;62.66;96048.78;5056880;28;20052;-64
2022/04/23 09:43:29;;;;;;;8.10;5.25;;;;;;;11.70;62.34;96057.75;5067663;28;20044;-64
2022/04/23 09:46:04;;;;;;;6.82;4.65;;;;;;;12.07;61.31;96063.50;5065427;28;20040;-64
2022/04/23 09:48:43;;;;;;;8.95;5.47;;;;;;;12.17;60.52;96057.13;5068767;28;20447;-64
2022/04/23 09:51:26;;;;;;;7.07;4.75;;;;;;;11.92;61.02;96056.38;5054030;28;20467;-64
2022/04/23 09:53:54;;;;;;;7.88;5.30;;;;;;;11.69;61.80;96059.66;5048445;28;20049;-64
2022/04/23 09:56:23;;;;;;;7.90;5.05;;;;;;;12.06;61.01;96062.69;5049381;28;20041;-64
2022/04/23 09:58:51;;;;;;;8.75;5.78;;;;;;;12.00;61.09;96055.72;5054743;28;20040;-64
2022/04/23 10:01:19;;;;;;;7.80;5.00;;;;;;;12.16;60.29;96056.31;5055693;28;20048;-64
2022/04/23 10:03:52;;;;;;;7.80;5.28;;;;;;;12.29;59.57;96059.38;5059240;28;20048;-64
2022/04/23 10:06:20;;;;;;;8.48;5.28;;;;;;;12.46;59.11;96054.22;5046612;28;20037;-64
2022/04/23 10:08:49;;;;;;;12.02;5.10;;;;;;;12.67;58.88;96055.78;5046814;28;20049;-64
2022/04/23 10:11:26;;;;;;;7.38;4.70;;;;;;;12.79;58.50;96047.97;5046074;28;20048;-64
2022/04/23 10:14:16;;;;;;;8.25;4.50;;;;;;;13.31;56.58;96051.66;5046331;28;20056;-64
2022/04/23 10:16:43;;;;;;;7.47;4.75;;;;;;;13.16;56.73;96060.91;5046224;28;20045;-64
2022/04/23 10:19:10;;;;;;;7.65;4.65;;;;;;;13.00;57.47;96066.63;5063530;28;20028;-64
2022/04/23 10:22:14;;;;;;;7.63;5.32;;;;;;;12.45;59.51;96046.38;5055629;28;20655;-64
2022/04/23 10:24:49;;;;;;;6.72;4.38;;;;;;;12.46;60.07;96061.56;5021398;28;20048;-64
2022/04/23 10:27:17;;;;;;;7.80;4.63;;;;;;;12.58;59.30;96050.25;5043487;28;20134;-64
2022/04/23 10:29:44;;;;;;;7.30;4.82;;;;;;;12.72;58.62;96058.44;5046424;28;20049;-64
2022/04/23 10:32:11;;;;;;;10.35;5.72;;;;;;;12.69;58.38;96064.44;5062189;28;20075;-64
2022/04/23 10:34:39;;;;;;;8.43;4.95;;;;;;;12.08;59.87;96055.09;5059634;28;20052;-63
2022/04/23 10:37:20;;;;;;;8.07;4.80;;;;;;;12.65;58.80;96055.28;5048994;28;20048;-64
2022/04/23 10:39:53;;;;;;;7.35;4.47;;;;;;;13.12;57.50;96044.41;5060687;28;20052;-64
2022/04/23 10:42:23;;;;;;;7.55;4.25;;;;;;;13.16;56.47;96056.25;5055063;28;20041;-63
2022/04/23 10:44:51;;;;;;;7.32;3.97;;;;;;;13.18;56.31;96050.53;5053762;28;20049;-64
2022/04/23 10:47:30;;;;;;;7.80;4.40;;;;;;;12.68;57.84;96046.56;5060919;28;20067;-64
2022/04/23 10:50:23;;;;;;;6.13;3.90;;;;;;;12.97;57.37;96054.44;5062539;28;20044;-64
2022/04/23 10:52:51;;;;;;;6.43;3.97;;;;;;;13.09;56.73;96040.34;5056845;28;20707;-64
2022/04/23 10:55:18;;;;;;;6.72;3.53;;;;;;;13.39;56.45;96040.06;5061845;28;20056;-64
2022/04/23 10:57:52;;;;;;;7.13;4.47;;;;;;;13.61;55.28;96047.53;5058922;28;20044;-64
2022/04/23 11:00:23;;;;;;;5.55;3.42;;;;;;;13.61;55.16;96030.41;5052577;28;20102;-64
2022/04/23 11:02:57;;;;;;;8.70;4.45;;;;;;;12.87;57.38;96036.41;5062044;28;20046;-64
2022/04/23 11:13:52;;;;;;;7.25;4.63;;;;;;;12.63;58.19;96041.22;5042641;28;20295;-64
2022/04/23 11:16:22;;;;;;;7.65;4.90;;;;;;;12.41;58.59;96042.63;5058180;28;20040;-64
2022/04/23 11:18:51;;;;;;;7.18;4.35;;;;;;;12.18;59.50;96037.03;5062861;28;20119;-64
2022/04/23 11:21:28;;;;;;;7.07;4.20;;;;;;;12.26;59.25;96043.69;5059506;28;20044;-64
2022/04/23 11:23:57;;;;;;;7.82;4.68;;;;;;;12.39;59.16;96034.00;5053068;28;20047;-65
2022/04/23 11:26:44;;;;;;;6.90;4.65;;;;;;;12.88;57.78;96042.66;5054922;28;20819;-66
2022/04/23 11:29:13;;;;;;;6.03;4.20;;;;;;;12.81;57.22;96032.19;5047873;28;20512;-64
2022/04/23 11:31:40;;;;;;;6.53;3.70;;;;;;;12.53;57.95;96034.03;5053931;28;20575;-64
2022/04/23 11:34:07;;;;;;;8.38;4.50;;;;;;;12.92;57.09;96031.97;5059709;28;20036;-64
2022/04/23 11:36:35;;;;;;;6.85;4.70;;;;;;;13.04;56.49;96024.16;5055053;28;20075;-65
2022/04/23 11:39:09;;;;;;;8.32;4.65;;;;;;;12.92;57.13;96026.56;5054801;28;20048;-64
2022/04/23 11:41:38;;;;;;;7.07;4.60;;;;;;;13.07;56.68;96028.19;5054802;28;20123;-64
2022/04/23 11:44:45;;;;;;;8.32;4.47;;;;;;;13.03;57.10;96021.72;5048509;28;20631;-64
2022/04/23 11:47:27;;;;;;;8.05;4.55;;;;;;;13.70;55.58;96033.19;5049382;28;20187;-64
2022/04/23 11:50:12;;;;;;;7.53;4.55;;;;;;;13.62;55.35;96023.84;5055949;28;20063;-64
2022/04/23 11:52:43;;;;;;;6.78;4.18;;;;;;;13.82;55.26;96019.88;5058710;28;20048;-64
2022/04/23 11:55:24;;;;;;;7.07;4.60;;;;;;;13.69;55.77;96018.81;5052653;28;20044;-65
2022/04/23 11:58:04;;;;;;;9.07;4.70;;;;;;;12.84;57.45;96015.28;5062249;28;20052;-64
2022/04/23 12:00:32;;;;;;;8.18;5.07;;;;;;;12.43;59.32;96016.00;5068189;28;20050;-64